Time;durP1;ratioP1;P1;durP2;ratioP2;P2;SDS_P1;SDS_P2;PMS_P1;PMS_P2;Temp;Humidity;BMP_temperature;BMP_pressure;BME280_temperature;BME280_humidity;BME280_pressure;Samples;Min_cycle;Max_cycle;Signal;HPM_P1;HPM_P2
2022/11/03 00:01:08;;;;;;;1.70;0.93;;;;;;;;;;4949466;29;20026;-87
2022/11/03 00:03:34;;;;;;;1.98;0.45;;;;;;;;;;4941101;29;20484;-87
2022/11/03 00:06:06;;;;;;;1.10;0.70;;;;;;;;;;4951271;29;20090;-86
2022/11/03 00:08:39;;;;;;;0.77;0.65;;;;;;;;;;4948085;29;20031;-87
2022/11/03 00:11:13;;;;;;;0.85;0.50;;;;;;;;;;4949338;29;20492;-86
2022/11/03 00:13:40;;;;;;;3.10;0.93;;;;;;;;;;4946350;29;20028;-86
2022/11/03 00:16:07;;;;;;;1.15;1.00;;;;;;;;;;4942916;29;20388;-86
2022/11/03 00:18:33;;;;;;;1.50;0.77;;;;;;;;;;4943074;29;20555;-87
2022/11/03 00:21:03;;;;;;;1.50;0.70;;;;;;;;;;4943918;29;20032;-85
2022/11/03 00:23:34;;;;;;;2.85;0.70;;;;;;;;;;4945359;29;20023;-87
2022/11/03 00:26:12;;;;;;;1.50;0.80;;;;;;;;;;4954347;28;20027;-86
2022/11/03 00:28:39;;;;;;;0.45;0.38;;;;;;;;;;4943813;29;20083;-88
2022/11/03 00:31:12;;;;;;;0.95;0.43;;;;;;;;;;4945287;28;20035;-86
2022/11/03 00:33:39;;;;;;;1.55;0.50;;;;;;;;;;4941415;29;20033;-87
2022/11/03 00:36:05;;;;;;;3.20;0.82;;;;;;;;;;4948160;29;20035;-86
2022/11/03 00:38:31;;;;;;;1.13;0.70;;;;;;;;;;4942278;29;20354;-85
2022/11/03 00:41:01;;;;;;;1.50;0.47;;;;;;;;;;4961777;28;20537;-88
2022/11/03 00:43:27;;;;;;;;;;;;;;;;;;4941726;29;20028;-87
2022/11/03 00:45:53;;;;;;;0.75;0.52;;;;;;;;;;4926320;29;19919;-87
2022/11/03 00:48:28;;;;;;;0.45;0.43;;;;;;;;;;4939960;29;20039;-85
2022/11/03 00:51:06;;;;;;;1.40;0.60;;;;;;;;;;4940899;29;20027;-87
2022/11/03 00:53:34;;;;;;;1.20;0.52;;;;;;;;;;4942731;29;20034;-86
2022/11/03 00:56:00;;;;;;;0.40;0.40;;;;;;;;;;4948366;29;20472;-88
2022/11/03 00:58:25;;;;;;;1.35;0.60;;;;;;;;;;4944059;29;20027;-89
2022/11/03 01:00:58;;;;;;;1.20;0.70;;;;;;;;;;4944905;29;20038;-87
2022/11/03 01:03:23;;;;;;;0.75;0.65;;;;;;;;;;4945660;29;20039;-86
2022/11/03 01:08:34;;;;;;;0.85;0.50;;;;;;;;;;4945427;29;20063;-86
2022/11/03 01:13:49;;;;;;;0.60;0.60;;;;;;;;;;4946055;29;20041;-89
2022/11/03 01:16:15;;;;;;;3.40;1.10;;;;;;;;;;4951399;29;20027;-87
2022/11/03 01:18:40;;;;;;;2.05;0.90;;;;;;;;;;4946384;29;20048;-88
2022/11/03 01:21:05;;;;;;;2.72;0.88;;;;;;;;;;4944704;29;20030;-84
2022/11/03 01:23:34;;;;;;;0.38;0.38;;;;;;;;;;4942603;29;20110;-87
2022/11/03 01:26:05;;;;;;;1.02;0.68;;;;;;;;;;4941351;29;20050;-86
2022/11/03 01:28:33;;;;;;;1.90;0.75;;;;;;;;;;4944819;29;20027;-87
2022/11/03 01:31:07;;;;;;;0.70;0.40;;;;;;;;;;4943624;29;20032;-88
2022/11/03 01:33:33;;;;;;;0.68;0.40;;;;;;;;;;4942993;29;20106;-87
2022/11/03 01:35:58;;;;;;;0.73;0.45;;;;;;;;;;4946020;29;20507;-84
2022/11/03 01:38:24;;;;;;;0.85;0.80;;;;;;;;;;4946840;29;20031;-90
2022/11/03 01:40:49;;;;;;;0.40;0.40;;;;;;;;;;4942415;29;20031;-89
2022/11/03 01:43:17;;;;;;;1.42;1.02;;;;;;;;;;4944154;29;20031;-88
2022/11/03 01:45:43;;;;;;;3.92;0.70;;;;;;;;;;4943979;29;20038;-87
2022/11/03 01:48:11;;;;;;;4.15;1.70;;;;;;;;;;4944234;29;20495;-86
2022/11/03 01:50:37;;;;;;;5.45;0.75;;;;;;;;;;4942211;29;20027;-86
2022/11/03 01:53:03;;;;;;;1.48;0.80;;;;;;;;;;4945186;29;20113;-85
2022/11/03 01:55:32;;;;;;;1.10;0.90;;;;;;;;;;4941536;29;20075;-89
2022/11/03 01:58:28;;;;;;;3.17;0.90;;;;;;;;;;4946054;29;20034;-87
2022/11/03 02:00:57;;;;;;;0.85;0.63;;;;;;;;;;4941323;29;20039;-85
2022/11/03 02:03:24;;;;;;;2.30;1.10;;;;;;;;;;4940202;29;20535;-87
2022/11/03 02:05:51;;;;;;;1.02;0.65;;;;;;;;;;4943570;29;20063;-87
2022/11/03 02:08:21;;;;;;;1.30;0.80;;;;;;;;;;4944489;29;20031;-88
2022/11/03 02:10:48;;;;;;;0.50;0.50;;;;;;;;;;4947407;29;20030;-86
2022/11/03 02:13:25;;;;;;;2.20;0.98;;;;;;;;;;4945235;29;20063;-87
2022/11/03 02:15:56;;;;;;;3.72;0.98;;;;;;;;;;4940009;29;20024;-87
2022/11/03 02:18:27;;;;;;;1.92;1.17;;;;;;;;;;4940863;29;20449;-88
2022/11/03 02:21:14;;;;;;;8.20;1.23;;;;;;;;;;4944298;29;20051;-86
2022/11/03 02:23:44;;;;;;;1.85;0.85;;;;;;;;;;4939479;29;20379;-86
2022/11/03 02:26:13;;;;;;;1.92;1.15;;;;;;;;;;4939598;29;20039;-86
2022/11/03 02:28:39;;;;;;;1.65;0.80;;;;;;;;;;4945084;29;20039;-85
2022/11/03 02:31:23;;;;;;;5.20;1.75;;;;;;;;;;4943891;29;20365;-86
2022/11/03 02:33:56;;;;;;;4.60;1.33;;;;;;;;;;4941593;29;20036;-86
2022/11/03 02:36:52;;;;;;;8.20;1.40;;;;;;;;;;4938634;29;20039;-88
2022/11/03 02:39:40;;;;;;;1.30;0.80;;;;;;;;;;4938060;29;20027;-86
2022/11/03 02:42:08;;;;;;;1.42;1.17;;;;;;;;;;4932601;29;20035;-85
2022/11/03 02:44:35;;;;;;;2.38;1.17;;;;;;;;;;4944494;29;20035;-86
2022/11/03 02:47:06;;;;;;;1.65;0.82;;;;;;;;;;4942896;29;20038;-86
2022/11/03 02:49:37;;;;;;;2.45;1.13;;;;;;;;;;4946948;29;20020;-85
2022/11/03 02:52:04;;;;;;;1.73;1.08;;;;;;;;;;4940002;29;20066;-85
2022/11/03 02:54:38;;;;;;;1.23;1.00;;;;;;;;;;4945458;29;20039;-89
2022/11/03 02:57:11;;;;;;;3.50;1.20;;;;;;;;;;4939848;29;20062;-87
2022/11/03 02:59:43;;;;;;;1.17;0.75;;;;;;;;;;4941800;29;20054;-88
2022/11/03 03:02:15;;;;;;;0.93;0.75;;;;;;;;;;4945258;29;20031;-86
2022/11/03 03:04:47;;;;;;;1.30;1.00;;;;;;;;;;4940522;29;20054;-87
2022/11/03 03:07:21;;;;;;;1.67;1.23;;;;;;;;;;4944042;28;20031;-86
2022/11/03 03:09:55;;;;;;;0.88;0.82;;;;;;;;;;4946035;29;20027;-86
2022/11/03 03:12:21;;;;;;;1.55;0.80;;;;;;;;;;4937648;29;20023;-86
2022/11/03 03:14:49;;;;;;;4.28;1.05;;;;;;;;;;4949621;29;20488;-87
2022/11/03 03:17:18;;;;;;;1.23;0.75;;;;;;;;;;4942813;29;20023;-87
2022/11/03 03:19:49;;;;;;;0.90;0.60;;;;;;;;;;4937760;29;20035;-85
2022/11/03 03:22:27;;;;;;;1.10;0.90;;;;;;;;;;4938862;29;20793;-86
2022/11/03 03:24:55;;;;;;;3.05;0.80;;;;;;;;;;4959724;28;20170;-87
2022/11/03 03:27:25;;;;;;;1.42;0.60;;;;;;;;;;4944125;29;20028;-87
2022/11/03 03:29:57;;;;;;;;;;;;;;;;;;4941915;29;20023;-86
2022/11/03 03:32:25;;;;;;;1.15;0.77;;;;;;;;;;4941024;29;19915;-87
2022/11/03 03:34:52;;;;;;;7.43;1.58;;;;;;;;;;4941944;29;20048;-88
2022/11/03 03:37:18;;;;;;;1.00;0.50;;;;;;;;;;4942519;29;20118;-86
2022/11/03 03:39:48;;;;;;;3.42;1.00;;;;;;;;;;4942299;29;20055;-84
2022/11/03 03:42:14;;;;;;;4.43;1.17;;;;;;;;;;4940976;29;20357;-86
2022/11/03 03:44:42;;;;;;;0.85;0.65;;;;;;;;;;4944762;29;20031;-86
2022/11/03 03:47:19;;;;;;;1.10;0.65;;;;;;;;;;4942689;29;20461;-85
2022/11/03 03:49:45;;;;;;;1.52;0.50;;;;;;;;;;4942902;29;20062;-85
2022/11/03 03:52:10;;;;;;;1.15;0.60;;;;;;;;;;4947226;29;20054;-84
2022/11/03 03:54:36;;;;;;;0.45;0.40;;;;;;;;;;4946782;29;20086;-87
2022/11/03 03:57:04;;;;;;;1.10;0.95;;;;;;;;;;4938638;29;20036;-87
2022/11/03 03:59:30;;;;;;;1.52;0.73;;;;;;;;;;4939025;29;20487;-88
2022/11/03 04:01:56;;;;;;;0.90;0.60;;;;;;;;;;4939462;29;20110;-87
2022/11/03 04:04:21;;;;;;;1.15;0.93;;;;;;;;;;4937346;29;20070;-87
2022/11/03 04:06:47;;;;;;;1.55;1.00;;;;;;;;;;4943499;29;20046;-84
2022/11/03 04:09:12;;;;;;;1.33;1.08;;;;;;;;;;4941369;29;20034;-88
2022/11/03 04:22:46;;;;;;;0.50;0.50;;;;;;;;;;4942028;29;20503;-87
2022/11/03 04:25:11;;;;;;;2.90;0.80;;;;;;;;;;4942567;29;20031;-86
2022/11/03 04:27:39;;;;;;;4.22;0.73;;;;;;;;;;4930107;29;20033;-87
2022/11/03 04:30:05;;;;;;;2.00;1.15;;;;;;;;;;4942496;29;20035;-88
2022/11/03 04:32:30;;;;;;;1.00;0.77;;;;;;;;;;4929495;29;20099;-85
2022/11/03 04:34:58;;;;;;;2.53;1.42;;;;;;;;;;4943792;29;20103;-89
2022/11/03 04:37:26;;;;;;;1.35;0.82;;;;;;;;;;4945100;29;20031;-85
2022/11/03 04:39:52;;;;;;;1.88;1.00;;;;;;;;;;4942128;29;20098;-87
2022/11/03 04:42:21;;;;;;;1.20;0.75;;;;;;;;;;4918081;29;20123;-88
2022/11/03 04:44:47;;;;;;;0.82;0.55;;;;;;;;;;4940705;29;20476;-86
2022/11/03 04:47:15;;;;;;;0.65;0.50;;;;;;;;;;4944930;29;20036;-87
2022/11/03 04:49:43;;;;;;;2.72;1.42;;;;;;;;;;4942517;29;20031;-88
2022/11/03 04:52:18;;;;;;;1.48;0.55;;;;;;;;;;4945866;29;20038;-90
2022/11/03 04:54:44;;;;;;;0.85;0.80;;;;;;;;;;4925113;29;20472;-87
2022/11/03 04:57:13;;;;;;;2.58;0.73;;;;;;;;;;4929757;29;20436;-85
2022/11/03 04:59:42;;;;;;;0.60;0.60;;;;;;;;;;4948843;29;20030;-87
2022/11/03 05:02:15;;;;;;;1.20;0.50;;;;;;;;;;4948320;29;21945;-87
2022/11/03 05:04:41;;;;;;;0.90;0.70;;;;;;;;;;4945990;29;20027;-86
2022/11/03 05:07:20;;;;;;;1.13;0.57;;;;;;;;;;4928994;29;20515;-87
2022/11/03 05:09:45;;;;;;;2.72;0.77;;;;;;;;;;4948061;29;20027;-88
2022/11/03 05:12:10;;;;;;;2.35;0.60;;;;;;;;;;4928310;29;20028;-87
2022/11/03 05:14:36;;;;;;;1.85;0.73;;;;;;;;;;4944365;29;20031;-88
2022/11/03 05:17:13;;;;;;;4.88;1.50;;;;;;;;;;4942560;28;20078;-88
2022/11/03 05:19:41;;;;;;;2.10;1.20;;;;;;;;;;4925879;29;20036;-85
2022/11/03 05:22:14;;;;;;;3.38;0.85;;;;;;;;;;4925982;29;20086;-85
2022/11/03 05:24:39;;;;;;;1.60;0.60;;;;;;;;;;4924459;29;20024;-88
2022/11/03 05:27:17;;;;;;;1.13;0.38;;;;;;;;;;4927463;29;20456;-88
2022/11/03 05:29:43;;;;;;;2.65;0.73;;;;;;;;;;4917783;29;20028;-88
2022/11/03 05:32:17;;;;;;;1.83;0.95;;;;;;;;;;4926117;29;20024;-88
2022/11/03 05:34:46;;;;;;;1.23;0.77;;;;;;;;;;4921814;29;20028;-88
2022/11/03 05:37:31;;;;;;;6.80;1.17;;;;;;;;;;4923923;29;20095;-88
2022/11/03 05:40:23;;;;;;;0.80;0.73;;;;;;;;;;4927107;29;20555;-88
2022/11/03 05:43:00;;;;;;;0.57;0.50;;;;;;;;;;4930318;29;20028;-88
2022/11/03 05:45:30;;;;;;;1.77;0.88;;;;;;;;;;4919229;29;20453;-88
2022/11/03 05:47:56;;;;;;;2.63;1.40;;;;;;;;;;4925725;29;20465;-87
2022/11/03 05:50:28;;;;;;;5.10;1.20;;;;;;;;;;4909883;29;20095;-88
2022/11/03 05:52:59;;;;;;;0.90;0.90;;;;;;;;;;4924294;29;20461;-87
2022/11/03 05:55:30;;;;;;;2.17;1.10;;;;;;;;;;4921268;29;20388;-88
2022/11/03 05:57:58;;;;;;;0.70;0.50;;;;;;;;;;4925908;29;20111;-88
2022/11/03 06:00:24;;;;;;;3.92;2.33;;;;;;;;;;4923284;29;20038;-88
2022/11/03 06:02:49;;;;;;;2.50;1.42;;;;;;;;;;4927241;29;20103;-87
2022/11/03 06:05:20;;;;;;;2.38;1.85;;;;;;;;;;4919268;29;20033;-88
2022/11/03 06:07:47;;;;;;;3.60;2.08;;;;;;;;;;4922604;29;20032;-89
2022/11/03 06:10:34;;;;;;;4.93;2.00;;;;;;;;;;4923020;29;20498;-87
2022/11/03 06:13:12;;;;;;;4.43;2.47;;;;;;;;;;4915911;29;20104;-88
2022/11/03 06:15:41;;;;;;;3.50;1.80;;;;;;;;;;4904127;29;20381;-87
2022/11/03 06:18:20;;;;;;;2.85;2.00;;;;;;;;;;4929362;29;20054;-86
2022/11/03 06:21:15;;;;;;;8.05;2.72;;;;;;;;;;4937550;29;20441;-86
2022/11/03 06:23:41;;;;;;;5.63;2.75;;;;;;;;;;4936905;29;20027;-86
2022/11/03 06:26:26;;;;;;;5.07;2.40;;;;;;;;;;4940540;29;20042;-86
2022/11/03 06:28:52;;;;;;;4.18;3.13;;;;;;;;;;4936336;29;20114;-88
2022/11/03 06:31:25;;;;;;;2.80;1.90;;;;;;;;;;4943068;29;20027;-88
2022/11/03 06:33:51;;;;;;;2.08;1.55;;;;;;;;;;4937334;29;20028;-85
2022/11/03 06:36:23;;;;;;;4.57;2.60;;;;;;;;;;4937462;29;20020;-84
2022/11/03 06:39:04;;;;;;;4.88;2.38;;;;;;;;;;4943864;29;20034;-86
2022/11/03 06:41:31;;;;;;;1.95;1.50;;;;;;;;;;4942232;29;20110;-87
2022/11/03 06:44:07;;;;;;;3.20;2.22;;;;;;;;;;4937374;29;20027;-88
2022/11/03 06:46:32;;;;;;;5.30;2.90;;;;;;;;;;4923573;29;20493;-84
2022/11/03 06:49:00;;;;;;;5.57;2.55;;;;;;;;;;4939423;29;20024;-84
2022/11/03 06:51:29;;;;;;;5.45;2.40;;;;;;;;;;4946177;29;20062;-85
2022/11/03 06:53:58;;;;;;;4.30;2.38;;;;;;;;;;4940149;29;20028;-86
2022/11/03 06:56:27;;;;;;;3.97;2.10;;;;;;;;;;4944278;29;20432;-84
2022/11/03 06:58:55;;;;;;;5.55;2.15;;;;;;;;;;4937221;29;20038;-86
2022/11/03 07:01:28;;;;;;;6.75;2.55;;;;;;;;;;4944676;29;20341;-85
2022/11/03 07:04:13;;;;;;;4.90;2.60;;;;;;;;;;4944107;29;20031;-85
2022/11/03 07:06:39;;;;;;;3.80;2.15;;;;;;;;;;4943940;29;20404;-85
2022/11/03 07:09:12;;;;;;;5.93;2.33;;;;;;;;;;4945047;29;20031;-86
2022/11/03 07:11:48;;;;;;;3.38;2.25;;;;;;;;;;4940423;29;20038;-86
2022/11/03 07:14:18;;;;;;;5.03;2.30;;;;;;;;;;4943829;29;20365;-85
2022/11/03 07:28:25;;;;;;;;;;;;;;;;;;;;;
2022/11/03 07:48:41;;;;;;;13.55;8.27;;;;;;;;;;4906821;29;20568;-87
2022/11/03 08:08:58;;;;;;;3.90;2.20;;;;;;;;;;4813949;29;20054;-84
2022/11/03 08:11:24;;;;;;;5.57;3.13;;;;;;;;;;4830142;29;20056;-85
2022/11/03 08:13:50;;;;;;;4.55;2.13;;;;;;;;;;4945349;28;20110;-88
2022/11/03 08:16:16;;;;;;;5.57;2.30;;;;;;;;;;4945040;29;20095;-87
2022/11/03 08:18:41;;;;;;;5.13;2.70;;;;;;;;;;4944445;29;20084;-87
2022/11/03 08:21:07;;;;;;;6.50;2.90;;;;;;;;;;4945944;29;20058;-87
2022/11/03 08:23:32;;;;;;;3.97;2.00;;;;;;;;;;4945254;29;20023;-86
2022/11/03 08:25:57;;;;;;;5.72;2.50;;;;;;;;;;4946388;29;20040;-88
2022/11/03 08:28:23;;;;;;;4.57;2.50;;;;;;;;;;4937616;29;20477;-89
2022/11/03 08:30:48;;;;;;;7.05;2.10;;;;;;;;;;4940363;29;20372;-89
2022/11/03 08:33:14;;;;;;;4.50;2.15;;;;;;;;;;4944029;29;20051;-87
2022/11/03 08:35:40;;;;;;;4.60;2.63;;;;;;;;;;4941013;29;20028;-85
2022/11/03 08:38:05;;;;;;;5.10;2.70;;;;;;;;;;4944803;29;20042;-86
2022/11/03 08:40:31;;;;;;;6.30;3.03;;;;;;;;;;4943417;29;20027;-90
2022/11/03 08:42:56;;;;;;;5.22;2.78;;;;;;;;;;4948946;29;20030;-86
2022/11/03 08:45:22;;;;;;;3.28;2.00;;;;;;;;;;4944509;29;20059;-87
2022/11/03 08:47:47;;;;;;;5.65;2.45;;;;;;;;;;4941788;29;20034;-86
2022/11/03 08:50:12;;;;;;;11.57;2.92;;;;;;;;;;4948643;29;20023;-86
2022/11/03 08:52:38;;;;;;;6.50;2.33;;;;;;;;;;4943444;29;20040;-88
2022/11/03 08:55:04;;;;;;;4.53;2.25;;;;;;;;;;4941280;29;20086;-88
2022/11/03 08:57:30;;;;;;;4.65;2.47;;;;;;;;;;4947545;29;20027;-85
2022/11/03 08:59:55;;;;;;;5.50;2.63;;;;;;;;;;4940709;29;20023;-84
2022/11/03 09:02:21;;;;;;;4.80;2.53;;;;;;;;;;4941416;29;20028;-87
2022/11/03 09:04:46;;;;;;;7.13;3.58;;;;;;;;;;4944740;29;20038;-87
2022/11/03 09:07:12;;;;;;;12.63;2.97;;;;;;;;;;4941082;29;20546;-87
2022/11/03 09:09:37;;;;;;;6.70;3.13;;;;;;;;;;4943166;29;20037;-87
2022/11/03 09:12:03;;;;;;;5.85;2.95;;;;;;;;;;4944255;29;20047;-86
2022/11/03 09:14:28;;;;;;;9.88;3.28;;;;;;;;;;4941501;29;20067;-87
2022/11/03 09:16:54;;;;;;;5.30;2.88;;;;;;;;;;4945598;29;20053;-85
2022/11/03 09:19:19;;;;;;;5.72;3.28;;;;;;;;;;4947158;29;20480;-86
2022/11/03 09:21:45;;;;;;;4.75;2.67;;;;;;;;;;4940332;29;20050;-86
2022/11/03 09:24:10;;;;;;;6.75;2.88;;;;;;;;;;4943989;29;20107;-87
2022/11/03 09:26:37;;;;;;;4.45;2.85;;;;;;;;;;4944871;29;20055;-85
2022/11/03 09:29:02;;;;;;;3.42;2.10;;;;;;;;;;4938715;29;20027;-87
2022/11/03 09:31:28;;;;;;;4.88;3.20;;;;;;;;;;4942460;29;20034;-87
2022/11/03 09:33:54;;;;;;;3.65;2.45;;;;;;;;;;4938747;29;20393;-88
2022/11/03 09:36:19;;;;;;;3.60;2.47;;;;;;;;;;4948921;29;20110;-87
2022/11/03 09:38:45;;;;;;;3.83;2.80;;;;;;;;;;4944729;29;20042;-87
2022/11/03 09:41:16;;;;;;;4.00;2.13;;;;;;;;;;4941579;29;20381;-86
2022/11/03 09:43:46;;;;;;;6.15;2.88;;;;;;;;;;4943151;29;20023;-88
2022/11/03 09:46:12;;;;;;;3.80;2.67;;;;;;;;;;4937973;29;20142;-86
2022/11/03 09:48:37;;;;;;;6.50;3.53;;;;;;;;;;4942654;29;20042;-86
2022/11/03 09:51:03;;;;;;;4.18;2.50;;;;;;;;;;4940916;29;20028;-88
2022/11/03 09:53:29;;;;;;;7.57;2.67;;;;;;;;;;4940358;29;20110;-87
2022/11/03 09:55:55;;;;;;;8.52;2.92;;;;;;;;;;4946610;29;20023;-86
2022/11/03 09:58:20;;;;;;;7.75;2.97;;;;;;;;;;4942608;29;20038;-85
2022/11/03 10:00:46;;;;;;;6.75;3.78;;;;;;;;;;4940414;29;20039;-86
2022/11/03 10:03:14;;;;;;;5.65;2.67;;;;;;;;;;4949449;28;20106;-85
2022/11/03 10:05:42;;;;;;;4.32;2.42;;;;;;;;;;4941308;29;20086;-86
2022/11/03 10:08:26;;;;;;;7.95;3.22;;;;;;;;;;4941904;29;20070;-85
2022/11/03 10:10:52;;;;;;;4.45;2.53;;;;;;;;;;4944567;29;20043;-85
2022/11/03 10:13:25;;;;;;;7.43;2.65;;;;;;;;;;4943676;29;20432;-88
2022/11/03 10:15:51;;;;;;;5.53;3.15;;;;;;;;;;4940164;29;20036;-85
2022/11/03 10:18:17;;;;;;;4.35;2.63;;;;;;;;;;4944713;29;20031;-86
2022/11/03 10:20:43;;;;;;;4.75;2.83;;;;;;;;;;4944154;29;20044;-87
2022/11/03 10:23:09;;;;;;;7.03;2.67;;;;;;;;;;4939999;29;20031;-87
2022/11/03 10:25:35;;;;;;;6.95;2.20;;;;;;;;;;4943255;29;20106;-87
2022/11/03 10:28:17;;;;;;;5.03;2.38;;;;;;;;;;4945025;29;20090;-86
2022/11/03 10:31:07;;;;;;;5.63;1.75;;;;;;;;;;4940806;29;20451;-87
2022/11/03 10:33:34;;;;;;;;;;;;;;;;;;4942318;29;20476;-85
2022/11/03 10:36:24;;;;;;;3.83;2.13;;;;;;;;;;4923718;29;19970;-85
2022/11/03 10:38:49;;;;;;;;;;;;;;;;;;4946865;29;20035;-88
2022/11/03 10:41:30;;;;;;;2.38;1.60;;;;;;;;;;4924347;29;20364;-89
2022/11/03 10:44:18;;;;;;;6.93;1.83;;;;;;;;;;4938711;29;20027;-87
2022/11/03 10:47:01;;;;;;;5.57;1.60;;;;;;;;;;4940588;29;20063;-88
2022/11/03 10:49:32;;;;;;;3.00;1.60;;;;;;;;;;4941421;29;20027;-87
2022/11/03 10:52:21;;;;;;;4.13;1.58;;;;;;;;;;4938259;29;20445;-88
2022/11/03 10:54:48;;;;;;;2.13;1.00;;;;;;;;;;4943260;29;20042;-87
2022/11/03 10:57:14;;;;;;;3.78;1.98;;;;;;;;;;4942207;29;20039;-85
2022/11/03 10:59:41;;;;;;;3.45;1.90;;;;;;;;;;4944465;29;20385;-87
2022/11/03 11:02:17;;;;;;;1.95;1.20;;;;;;;;;;4943682;29;20023;-86
2022/11/03 11:04:45;;;;;;;3.95;1.90;;;;;;;;;;4936825;29;20028;-86
2022/11/03 11:07:20;;;;;;;2.65;1.05;;;;;;;;;;4945134;29;20962;-88
2022/11/03 11:09:46;;;;;;;1.35;0.73;;;;;;;;;;4942933;29;20079;-86
2022/11/03 11:12:22;;;;;;;0.90;0.75;;;;;;;;;;4942114;29;20031;-87
2022/11/03 11:14:56;;;;;;;2.88;1.25;;;;;;;;;;4942359;29;20063;-84
2022/11/03 11:17:43;;;;;;;1.33;0.65;;;;;;;;;;4948298;29;20431;-86
2022/11/03 11:20:20;;;;;;;1.88;0.85;;;;;;;;;;4941917;29;20047;-85
2022/11/03 11:22:48;;;;;;;5.65;1.10;;;;;;;;;;4941816;29;20051;-85
2022/11/03 11:25:13;;;;;;;3.20;1.45;;;;;;;;;;4944586;29;20027;-88
2022/11/03 11:27:39;;;;;;;1.05;0.88;;;;;;;;;;4942354;29;20042;-86
2022/11/03 11:30:26;;;;;;;1.42;0.90;;;;;;;;;;4948515;29;20027;-85
2022/11/03 11:33:00;;;;;;;2.70;1.17;;;;;;;;;;4944050;29;20110;-85
2022/11/03 11:35:25;;;;;;;4.22;1.23;;;;;;;;;;4945667;29;20126;-86
2022/11/03 11:37:52;;;;;;;3.45;1.20;;;;;;;;;;4944210;29;20527;-86
2022/11/03 11:40:23;;;;;;;1.52;1.20;;;;;;;;;;4946621;29;20035;-87
2022/11/03 11:43:01;;;;;;;1.75;0.88;;;;;;;;;;4963963;28;20031;-85
2022/11/03 11:46:12;;;;;;;3.40;1.63;;;;;;;;;;4942574;29;20031;-86
2022/11/03 11:48:38;;;;;;;2.90;1.50;;;;;;;;;;4909078;29;20043;-85
2022/11/03 11:51:08;;;;;;;2.47;0.90;;;;;;;;;;4947982;29;20074;-86
2022/11/03 11:53:41;;;;;;;2.25;0.85;;;;;;;;;;4946873;29;20106;-85
2022/11/03 11:56:12;;;;;;;2.22;0.90;;;;;;;;;;4947266;29;20035;-85
2022/11/03 11:58:44;;;;;;;1.75;0.95;;;;;;;;;;4944944;29;20441;-86
2022/11/03 12:01:28;;;;;;;1.95;1.25;;;;;;;;;;4948932;29;20362;-86
2022/11/03 12:03:55;;;;;;;1.42;0.98;;;;;;;;;;4955831;28;20815;-88
2022/11/03 12:06:33;;;;;;;1.80;1.20;;;;;;;;;;4945870;29;20388;-85
2022/11/03 12:09:14;;;;;;;1.90;1.00;;;;;;;;;;4943034;29;20051;-84
2022/11/03 12:11:47;;;;;;;2.60;1.33;;;;;;;;;;4945220;29;20042;-85
2022/11/03 12:14:39;;;;;;;3.97;1.45;;;;;;;;;;4948329;29;20039;-88
2022/11/03 12:17:16;;;;;;;2.35;0.95;;;;;;;;;;4943055;29;20043;-86
2022/11/03 12:19:47;;;;;;;1.58;0.90;;;;;;;;;;4941595;29;20023;-85
2022/11/03 12:22:22;;;;;;;0.98;0.88;;;;;;;;;;4945558;29;20047;-86
2022/11/03 12:25:07;;;;;;;1.27;0.80;;;;;;;;;;4944173;29;20035;-87
2022/11/03 12:27:35;;;;;;;1.20;0.85;;;;;;;;;;4946603;29;20114;-85
2022/11/03 12:30:07;;;;;;;6.72;0.90;;;;;;;;;;4946549;29;20030;-87
2022/11/03 12:32:33;;;;;;;2.50;1.20;;;;;;;;;;4949695;29;20036;-86
2022/11/03 12:34:58;;;;;;;1.70;1.08;;;;;;;;;;4942724;29;20046;-86
2022/11/03 12:37:24;;;;;;;2.75;1.10;;;;;;;;;;4945331;29;20031;-86
2022/11/03 12:39:49;;;;;;;3.05;1.60;;;;;;;;;;4944562;29;20023;-85
2022/11/03 12:42:14;;;;;;;2.53;1.80;;;;;;;;;;4948668;29;20039;-87
2022/11/03 12:44:40;;;;;;;3.47;1.35;;;;;;;;;;4944512;29;20039;-87
2022/11/03 12:47:05;;;;;;;3.10;1.48;;;;;;;;;;4947437;29;20054;-87
2022/11/03 12:49:31;;;;;;;2.83;1.30;;;;;;;;;;4946447;29;20086;-87
2022/11/03 12:52:04;;;;;;;2.35;0.90;;;;;;;;;;4944773;29;20031;-87
2022/11/03 12:54:30;;;;;;;6.72;1.75;;;;;;;;;;4946921;29;20031;-87
2022/11/03 12:56:55;;;;;;;2.25;0.95;;;;;;;;;;4948803;29;20527;-87
2022/11/03 12:59:20;;;;;;;4.38;1.15;;;;;;;;;;4949743;29;20038;-88
2022/11/03 13:01:46;;;;;;;3.00;1.15;;;;;;;;;;4945658;29;20055;-87
2022/11/03 13:04:11;;;;;;;2.47;0.90;;;;;;;;;;4950031;29;20118;-88
2022/11/03 13:06:37;;;;;;;2.60;1.50;;;;;;;;;;4941871;29;20038;-87
2022/11/03 13:09:02;;;;;;;7.38;1.55;;;;;;;;;;4950654;29;20034;-87
2022/11/03 13:14:11;;;;;;;3.58;1.55;;;;;;;;;;4941209;29;20103;-88
2022/11/03 13:16:37;;;;;;;1.73;1.20;;;;;;;;;;4950314;29;20016;-88
2022/11/03 13:19:02;;;;;;;3.25;0.98;;;;;;;;;;4953650;29;20074;-89
2022/11/03 13:21:28;;;;;;;4.85;1.40;;;;;;;;;;4939906;29;20102;-88
2022/11/03 13:23:55;;;;;;;5.55;1.27;;;;;;;;;;4945997;29;20396;-90
2022/11/03 13:26:20;;;;;;;2.65;1.35;;;;;;;;;;4938988;29;20036;-88
2022/11/03 13:28:46;;;;;;;3.47;1.70;;;;;;;;;;4945642;29;20035;-87
2022/11/03 13:31:11;;;;;;;5.20;1.20;;;;;;;;;;4938250;29;20023;-87
2022/11/03 13:33:37;;;;;;;3.90;1.50;;;;;;;;;;4935945;29;20035;-88
2022/11/03 13:36:03;;;;;;;2.25;0.90;;;;;;;;;;4939652;29;20023;-88
2022/11/03 13:38:28;;;;;;;2.05;1.08;;;;;;;;;;4939500;29;20063;-88
2022/11/03 13:40:54;;;;;;;1.27;0.88;;;;;;;;;;4944316;29;20089;-87
2022/11/03 13:43:20;;;;;;;2.40;1.20;;;;;;;;;;4957543;28;20362;-89
2022/11/03 13:45:45;;;;;;;2.33;1.50;;;;;;;;;;4943634;29;20095;-88
2022/11/03 13:48:11;;;;;;;2.20;1.30;;;;;;;;;;4943859;29;20082;-89
2022/11/03 13:50:36;;;;;;;1.92;1.13;;;;;;;;;;4951164;29;20073;-90
2022/11/03 13:53:01;;;;;;;2.13;1.27;;;;;;;;;;4939445;29;20086;-90
2022/11/03 13:55:27;;;;;;;12.27;1.70;;;;;;;;;;4940597;29;20031;-89
2022/11/03 13:57:52;;;;;;;1.35;1.10;;;;;;;;;;4941833;29;20023;-92
2022/11/03 14:00:18;;;;;;;2.60;1.05;;;;;;;;;;4945194;29;20027;-91
2022/11/03 14:02:43;;;;;;;1.98;1.55;;;;;;;;;;4944445;29;20090;-91
2022/11/03 14:05:09;;;;;;;5.55;1.35;;;;;;;;;;4939478;29;20083;-91
2022/11/03 14:07:35;;;;;;;3.42;1.30;;;;;;;;;;4941223;29;20028;-91
2022/11/03 14:10:00;;;;;;;2.22;1.17;;;;;;;;;;4932695;29;20028;-91
2022/11/03 14:12:33;;;;;;;1.70;1.13;;;;;;;;;;4941739;29;20038;-91
2022/11/03 14:15:09;;;;;;;3.88;1.40;;;;;;;;;;4938814;29;20042;-90
2022/11/03 14:17:35;;;;;;;5.82;1.65;;;;;;;;;;4940601;29;20480;-91
2022/11/03 14:20:02;;;;;;;1.35;0.95;;;;;;;;;;4942944;29;20138;-87
2022/11/03 14:22:29;;;;;;;2.75;1.73;;;;;;;;;;4938683;29;20392;-87
2022/11/03 14:24:55;;;;;;;5.95;1.30;;;;;;;;;;4949324;29;20782;-87
2022/11/03 14:27:20;;;;;;;2.80;1.60;;;;;;;;;;4944336;29;20039;-88
2022/11/03 14:29:49;;;;;;;2.75;1.17;;;;;;;;;;4945074;29;20034;-88
2022/11/03 14:32:16;;;;;;;2.40;1.67;;;;;;;;;;4943062;29;20110;-89
2022/11/03 14:34:42;;;;;;;6.03;1.70;;;;;;;;;;4940714;29;20079;-87
2022/11/03 14:37:11;;;;;;;1.92;1.30;;;;;;;;;;4939318;29;20046;-88
2022/11/03 14:39:37;;;;;;;4.35;1.05;;;;;;;;;;4948702;29;20484;-88
2022/11/03 14:42:05;;;;;;;3.03;1.08;;;;;;;;;;4943900;29;20024;-88
2022/11/03 14:44:38;;;;;;;2.13;1.13;;;;;;;;;;4948265;29;20110;-87
2022/11/03 14:47:11;;;;;;;1.70;0.85;;;;;;;;;;4938098;29;20488;-88
2022/11/03 14:49:37;;;;;;;2.90;1.55;;;;;;;;;;4937552;28;20483;-88
2022/11/03 14:52:03;;;;;;;4.43;1.23;;;;;;;;;;4945312;29;20114;-87
2022/11/03 14:54:30;;;;;;;1.77;1.35;;;;;;;;;;4943058;29;20031;-90
2022/11/03 14:56:55;;;;;;;4.00;1.00;;;;;;;;;;4938312;29;20031;-88
2022/11/03 14:59:22;;;;;;;1.17;1.08;;;;;;;;;;4940646;29;20459;-88
2022/11/03 15:01:48;;;;;;;2.35;1.10;;;;;;;;;;4942751;29;20542;-86
2022/11/03 15:04:14;;;;;;;3.08;1.35;;;;;;;;;;4942142;29;20036;-87
2022/11/03 15:06:42;;;;;;;2.72;1.50;;;;;;;;;;4938182;29;20038;-88
2022/11/03 15:09:07;;;;;;;1.30;0.88;;;;;;;;;;4939431;29;20035;-86
2022/11/03 15:11:33;;;;;;;1.42;1.08;;;;;;;;;;4943347;29;20031;-84
2022/11/03 15:13:59;;;;;;;2.72;1.25;;;;;;;;;;4939842;29;20488;-84
2022/11/03 15:16:25;;;;;;;1.02;0.68;;;;;;;;;;4942415;29;20031;-85
2022/11/03 15:18:50;;;;;;;3.58;1.38;;;;;;;;;;4941214;29;20038;-85
2022/11/03 15:21:16;;;;;;;1.83;0.65;;;;;;;;;;4944604;29;20059;-84
2022/11/03 15:23:42;;;;;;;1.60;1.08;;;;;;;;;;4943560;29;20044;-85
2022/11/03 15:26:08;;;;;;;1.55;0.98;;;;;;;;;;4945741;29;20034;-83
2022/11/03 15:28:33;;;;;;;1.58;1.20;;;;;;;;;;4941213;29;20041;-85
2022/11/03 15:30:59;;;;;;;2.55;0.95;;;;;;;;;;4945116;29;20103;-84
2022/11/03 15:33:24;;;;;;;1.88;1.00;;;;;;;;;;4943810;29;20030;-85
2022/11/03 15:35:50;;;;;;;8.95;1.20;;;;;;;;;;4941210;29;20035;-85
2022/11/03 15:38:15;;;;;;;1.23;0.98;;;;;;;;;;4934862;29;20040;-84
2022/11/03 15:40:40;;;;;;;5.47;1.30;;;;;;;;;;4943509;29;20027;-84
2022/11/03 15:43:06;;;;;;;1.67;0.90;;;;;;;;;;4943089;29;20508;-84
2022/11/03 15:45:32;;;;;;;4.20;1.25;;;;;;;;;;4937869;29;20027;-84
2022/11/03 15:47:58;;;;;;;1.23;1.02;;;;;;;;;;4946318;29;20460;-84
2022/11/03 15:50:24;;;;;;;1.05;0.95;;;;;;;;;;4939247;29;20035;-86
2022/11/03 15:52:50;;;;;;;12.75;1.10;;;;;;;;;;4941527;29;20032;-86
2022/11/03 15:55:16;;;;;;;2.28;0.90;;;;;;;;;;4938080;29;20038;-86
2022/11/03 15:57:41;;;;;;;1.50;0.80;;;;;;;;;;4941943;29;20102;-85
2022/11/03 16:00:09;;;;;;;1.88;1.48;;;;;;;;;;4942265;29;20038;-84
2022/11/03 16:02:40;;;;;;;0.77;0.60;;;;;;;;;;4944647;29;20023;-86
2022/11/03 16:05:07;;;;;;;2.90;1.08;;;;;;;;;;4945370;29;20037;-87